createdAt,value
2023-03-06T00:00:21.441Z,98395.69
2023-03-06T00:01:25.722Z,98401.78
2023-03-06T00:02:29.685Z,98393.06
2023-03-06T00:03:34.491Z,98387.81
2023-03-06T00:04:38.779Z,98390.38
2023-03-06T00:05:42.670Z,98391.22
2023-03-06T00:06:47.210Z,98398.22
2023-03-06T00:07:52.182Z,98401.78
2023-03-06T00:08:56.228Z,98398.16
2023-03-06T00:09:59.807Z,98402.63
2023-03-06T00:11:03.712Z,98400.00
2023-03-06T00:12:08.649Z,98399.16
2023-03-06T00:13:16.660Z,98403.47
2023-03-06T00:14:20.811Z,98405.16
2023-03-06T00:15:26.751Z,98403.47
2023-03-06T00:16:30.854Z,98412.19
2023-03-06T00:17:34.838Z,98411.59
2023-03-06T00:18:38.863Z,98408.78
2023-03-06T00:19:42.782Z,98404.47
2023-03-06T00:20:46.561Z,98403.47
2023-03-06T00:21:51.201Z,98400.94
2023-03-06T00:22:57.743Z,98398.22
2023-03-06T00:24:01.783Z,98387.69
2023-03-06T00:25:07.672Z,98384.38
2023-03-06T00:26:12.572Z,98392.13
2023-03-06T00:27:16.970Z,98390.44
2023-03-06T00:28:21.261Z,98395.69
2023-03-06T00:29:26.576Z,98395.59
2023-03-06T00:30:31.803Z,98393.84
2023-03-06T00:31:39.107Z,98386.91
2023-03-06T00:32:43.944Z,98395.59
2023-03-06T00:33:47.878Z,98391.22
2023-03-06T00:34:56.154Z,98393.16
2023-03-06T00:36:07.449Z,98393.16
2023-03-06T00:37:11.112Z,98398.41
2023-03-06T00:38:15.029Z,98394.94
2023-03-06T00:39:19.367Z,98398.41
2023-03-06T00:40:27.203Z,98395.16
2023-03-06T00:41:31.579Z,98396.00
2023-03-06T00:42:35.406Z,98387.53
2023-03-06T00:43:39.755Z,98395.63
2023-03-06T00:44:47.266Z,98390.47
2023-03-06T00:45:51.678Z,98393.22
2023-03-06T00:46:55.405Z,98382.72
2023-03-06T00:47:59.142Z,98385.22
2023-03-06T00:49:03.031Z,98383.91
2023-03-06T00:50:09.201Z,98383.03
2023-03-06T00:51:14.025Z,98378.34
2023-03-06T00:52:18.132Z,98381.75
2023-03-06T00:53:21.807Z,98383.59
2023-03-06T00:54:25.451Z,98374.13
2023-03-06T00:55:31.232Z,98372.22
2023-03-06T00:56:35.000Z,98371.34
2023-03-06T00:57:39.039Z,98378.22
2023-03-06T00:58:42.914Z,98376.53
2023-03-06T00:59:46.786Z,98373.91
2023-03-06T01:00:50.715Z,98380.06
2023-03-06T01:01:55.551Z,98376.66
2023-03-06T01:02:59.373Z,98374.13
2023-03-06T01:04:04.642Z,98375.88
2023-03-06T01:05:09.903Z,98372.88
2023-03-06T01:06:13.988Z,98378.81
2023-03-06T01:07:17.908Z,98378.72
2023-03-06T01:08:21.905Z,98377.75
2023-03-06T01:09:26.138Z,98377.78
2023-03-06T01:10:30.069Z,98382.06
2023-03-06T01:11:33.990Z,98378.69
2023-03-06T01:12:37.802Z,98376.28
2023-03-06T01:13:41.901Z,98376.94
2023-03-06T01:14:45.761Z,98376.06
2023-03-06T01:15:50.123Z,98377.75
2023-03-06T01:16:54.217Z,98378.81
2023-03-06T01:17:58.832Z,98379.56
2023-03-06T01:19:03.202Z,98377.13
2023-03-06T01:20:08.363Z,98376.09
2023-03-06T01:21:13.245Z,98379.81
2023-03-06T01:22:17.271Z,98382.34
2023-03-06T01:23:21.042Z,98385.06
2023-03-06T01:24:25.996Z,98383.78
2023-03-06T01:25:29.804Z,98382.94
2023-03-06T01:26:34.649Z,98383.59
2023-03-06T01:27:38.533Z,98381.25
2023-03-06T01:28:42.633Z,98382.28
2023-03-06T01:29:46.671Z,98388.97
2023-03-06T01:30:50.628Z,98386.19
2023-03-06T01:31:54.398Z,98385.34
2023-03-06T01:32:59.851Z,98383.66
2023-03-06T01:34:04.085Z,98378.25
2023-03-06T01:35:08.684Z,98379.09
2023-03-06T01:36:13.640Z,98379.09
2023-03-06T01:37:17.675Z,98367.88
2023-03-06T01:38:22.203Z,98373.03
2023-03-06T01:39:26.602Z,98367.66
2023-03-06T01:40:35.027Z,98366.81
2023-03-06T01:41:39.097Z,98371.88
2023-03-06T01:42:43.380Z,98372.88
2023-03-06T01:43:47.496Z,98357.31
2023-03-06T01:45:17.428Z,98370.03
2023-03-06T01:46:33.609Z,98368.03
2023-03-06T01:47:37.419Z,98363.66
2023-03-06T01:48:41.468Z,98364.69
2023-03-06T01:49:45.093Z,98370.88
2023-03-06T01:50:52.815Z,98371.72
2023-03-06T01:52:04.093Z,98370.66
2023-03-06T01:53:08.178Z,98371.41
2023-03-06T01:54:28.797Z,98373.03
2023-03-06T01:55:36.209Z,98371.25
2023-03-06T01:56:44.531Z,98365.47
2023-03-06T01:57:54.974Z,98364.53
2023-03-06T01:58:59.669Z,98366.25
2023-03-06T02:00:12.983Z,98361.16
2023-03-06T02:01:19.365Z,98354.16
2023-03-06T02:02:23.417Z,98360.09
2023-03-06T02:03:30.235Z,98358.31
2023-03-06T02:04:37.498Z,98362.41
2023-03-06T02:05:45.002Z,98365.88
2023-03-06T02:06:49.815Z,98364.31
2023-03-06T02:07:54.983Z,98372.03
2023-03-06T02:09:03.747Z,98368.50
2023-03-06T02:10:09.568Z,98367.09
2023-03-06T02:11:23.610Z,98371.13
2023-03-06T02:12:28.632Z,98375.56
2023-03-06T02:13:32.897Z,98371.97
2023-03-06T02:14:38.532Z,98377.13
2023-03-06T02:15:42.315Z,98372.03
2023-03-06T02:16:46.376Z,98372.72
2023-03-06T02:17:52.934Z,98369.94
2023-03-06T02:19:00.549Z,98363.84
2023-03-06T02:20:40.179Z,98365.50
2023-03-06T02:21:43.938Z,98367.19
2023-03-06T02:23:34.840Z,98370.81
2023-03-06T02:24:56.908Z,98368.56
2023-03-06T02:26:02.590Z,98356.34
2023-03-06T02:27:08.435Z,98357.84
2023-03-06T02:28:19.593Z,98353.47
2023-03-06T02:29:28.390Z,98354.22
2023-03-06T02:30:32.898Z,98357.72
2023-03-06T02:31:36.693Z,98355.78
2023-03-06T02:32:40.782Z,98354.00
2023-03-06T02:33:45.129Z,98357.22
2023-03-06T02:34:53.775Z,98347.59
2023-03-06T02:36:14.673Z,98351.16
2023-03-06T02:37:19.201Z,98358.06
2023-03-06T02:38:29.405Z,98355.53
2023-03-06T02:39:39.625Z,98354.78
2023-03-06T02:40:47.909Z,98350.59
2023-03-06T02:41:51.917Z,98352.38
2023-03-06T02:42:58.401Z,98347.81
2023-03-06T02:44:02.740Z,98350.13
2023-03-06T02:45:13.030Z,98345.59
2023-03-06T02:46:20.417Z,98350.09
2023-03-06T02:47:24.113Z,98350.97
2023-03-06T02:48:27.734Z,98342.44
2023-03-06T02:49:31.742Z,98341.69
2023-03-06T02:50:36.223Z,98340.13
2023-03-06T02:51:40.020Z,98345.34
2023-03-06T02:52:43.784Z,98346.06
2023-03-06T02:53:47.422Z,98341.81
2023-03-06T02:54:51.102Z,98350.44
2023-03-06T02:55:55.121Z,98349.53
2023-03-06T02:56:58.902Z,98352.59
2023-03-06T02:58:04.229Z,98351.53
2023-03-06T02:59:08.266Z,98356.69
2023-03-06T03:00:14.351Z,98350.59
2023-03-06T12:16:09.676Z,98096.34
2023-03-06T12:17:27.401Z,98089.75
2023-03-06T12:19:15.546Z,98089.63
2023-03-06T12:20:46.382Z,98083.72
2023-03-06T12:22:32.454Z,98084.81
2023-03-06T12:24:10.041Z,98092.38
2023-03-06T12:25:36.908Z,98081.28
2023-03-06T12:27:07.873Z,98088.75
2023-03-06T12:28:26.651Z,98087.53
2023-03-06T12:30:36.389Z,98086.00
2023-03-06T12:32:08.846Z,98085.75
2023-03-06T12:33:32.295Z,98086.72
2023-03-06T12:35:05.873Z,98084.19
2023-03-06T12:36:30.096Z,98079.16
2023-03-06T12:38:10.657Z,98081.91
2023-03-06T12:39:44.917Z,98079.59
2023-03-06T12:41:14.784Z,98078.28
2023-03-06T12:42:49.099Z,98079.84
2023-03-06T12:44:10.280Z,98075.41
2023-03-06T12:45:37.566Z,98071.91
2023-03-06T12:47:04.145Z,98077.72
2023-03-06T12:48:22.698Z,98071.47
2023-03-06T12:49:32.631Z,98074.59
2023-03-06T12:50:38.990Z,98065.94
2023-03-06T12:51:45.532Z,98075.91
2023-03-06T12:52:52.238Z,98067.38
2023-03-06T12:54:00.268Z,98071.69
2023-03-06T12:55:08.642Z,98071.59
2023-03-06T12:56:18.642Z,98064.72
2023-03-06T12:57:26.044Z,98070.84
2023-03-06T12:58:30.163Z,98072.19
2023-03-06T12:59:37.916Z,98063.41
2023-03-06T13:01:04.991Z,98064.00
2023-03-06T13:02:25.014Z,98066.66
2023-03-06T13:03:56.196Z,98063.00
2023-03-06T13:05:24.935Z,98059.91
2023-03-06T13:06:50.277Z,98063.31
2023-03-06T13:08:11.298Z,98055.59
2023-03-06T13:10:12.375Z,98061.34
2023-03-06T13:11:38.086Z,98059.69
2023-03-06T13:13:00.935Z,98056.28
2023-03-06T13:14:54.610Z,98063.91
2023-03-06T13:16:10.394Z,98062.53
2023-03-06T13:17:23.849Z,98064.72
2023-03-06T13:18:50.556Z,98049.94
2023-03-06T13:20:35.268Z,98048.63
2023-03-06T13:22:02.220Z,98050.41
2023-03-06T13:23:33.482Z,98060.03
2023-03-06T13:24:38.789Z,98056.81
2023-03-06T13:25:51.060Z,98056.19
2023-03-06T13:27:12.797Z,98077.72
2023-03-06T13:28:50.335Z,98056.78
2023-03-06T13:30:42.439Z,98048.59
2023-03-06T13:31:47.015Z,98042.59
2023-03-06T13:32:53.066Z,98042.94
2023-03-06T13:34:36.375Z,98042.34
2023-03-06T13:35:47.706Z,98033.44
2023-03-06T13:36:52.441Z,98027.66
2023-03-06T13:37:57.975Z,98030.09
2023-03-06T13:39:14.121Z,98027.31
2023-03-06T13:40:38.661Z,98023.38
2023-03-06T13:41:59.387Z,98026.47
2023-03-06T13:43:19.016Z,98028.88
2023-03-06T13:44:25.615Z,98025.03
2023-03-06T13:45:44.276Z,98019.16
2023-03-06T13:47:00.149Z,98021.06
2023-03-06T13:48:30.277Z,98024.34
2023-03-06T13:49:31.716Z,98022.88
2023-03-06T13:50:47.883Z,98028.53
2023-03-06T13:51:54.609Z,98021.44
2023-03-06T13:53:46.173Z,98020.84
2023-03-06T13:55:30.638Z,98021.69
2023-03-06T13:57:08.252Z,98026.63
2023-03-06T13:58:37.307Z,98034.41
2023-03-06T14:00:16.676Z,98039.00
2023-03-06T14:01:58.285Z,98053.41
2023-03-06T14:04:00.323Z,98045.78
2023-03-06T14:05:15.668Z,98053.06
2023-03-06T14:06:52.733Z,98046.69
2023-03-06T14:08:13.317Z,98048.56
2023-03-06T14:09:42.621Z,98051.31
2023-03-06T14:11:19.429Z,98057.03
2023-03-06T14:12:34.178Z,98049.91
2023-03-06T14:13:50.994Z,98063.34
2023-03-06T14:15:17.552Z,98056.97
2023-03-06T14:16:49.057Z,98059.34
2023-03-06T14:18:01.725Z,98068.16
2023-03-06T14:19:08.686Z,98063.34
2023-03-06T14:20:22.094Z,98061.19
2023-03-06T14:21:42.480Z,98059.34
2023-03-06T14:22:46.490Z,98076.84
2023-03-06T14:24:03.162Z,98068.53
2023-03-06T14:25:31.921Z,98074.38
2023-03-06T14:26:50.056Z,98066.56
2023-03-06T14:27:58.172Z,98065.63
2023-03-06T14:29:06.095Z,98065.63
2023-03-06T14:30:21.340Z,98066.28
2023-03-06T14:31:37.807Z,98064.47
2023-03-06T14:32:43.748Z,98071.88
2023-03-06T14:33:58.740Z,98070.38
2023-03-06T14:35:02.957Z,98065.97
2023-03-06T14:36:14.657Z,98076.41
2023-03-06T14:37:25.343Z,98066.13
2023-03-06T14:38:42.909Z,98072.53
2023-03-06T14:39:47.038Z,98066.13
2023-03-06T14:40:52.533Z,98065.88
2023-03-06T14:42:25.342Z,98072.41
2023-03-06T14:43:29.132Z,98070.44
2023-03-06T14:44:33.433Z,98069.13
2023-03-06T14:45:37.386Z,98063.44
2023-03-06T14:46:41.347Z,98066.72
2023-03-06T14:47:53.382Z,98063.63
2023-03-06T14:49:00.239Z,98066.78
2023-03-06T14:50:29.756Z,98062.00
2023-03-06T14:51:46.358Z,98062.00
2023-03-06T14:53:18.356Z,98061.63
2023-03-06T14:54:34.959Z,98053.69
2023-03-06T14:55:45.115Z,98048.22
2023-03-06T14:56:54.863Z,98055.72
2023-03-06T14:58:24.856Z,98050.22
2023-03-06T14:59:39.331Z,98061.06
2023-03-06T15:00:50.133Z,98051.88
2023-03-06T15:02:06.071Z,98052.41
2023-03-06T15:03:28.016Z,98053.00
2023-03-06T15:05:12.397Z,98057.31
2023-03-06T15:06:25.863Z,98048.69
2023-03-06T15:07:33.563Z,98051.84
2023-03-06T15:08:40.643Z,98055.78
2023-03-06T15:09:49.808Z,98059.19
2023-03-06T15:11:20.329Z,98044.91
2023-03-06T15:12:24.589Z,98049.69
2023-03-06T15:13:32.846Z,98046.00
2023-03-06T15:14:42.979Z,98045.88
2023-03-06T15:16:11.753Z,98040.09
2023-03-06T15:17:19.183Z,98038.72
2023-03-06T15:19:01.935Z,98035.16
2023-03-06T15:20:28.168Z,98042.25
2023-03-06T15:21:39.273Z,98037.88
2023-03-06T15:22:44.219Z,98037.69
2023-03-06T15:23:53.920Z,98036.84
2023-03-06T15:25:21.727Z,98044.63
2023-03-06T15:26:37.386Z,98040.31
2023-03-06T15:27:47.934Z,98039.81
2023-03-06T15:29:09.469Z,98038.56
2023-03-06T15:30:41.222Z,98036.88
2023-03-06T15:31:46.537Z,98038.56
2023-03-06T15:32:51.662Z,98040.88
2023-03-06T15:34:20.279Z,98039.53
2023-03-06T15:35:37.362Z,98032.16
2023-03-06T15:36:58.953Z,98033.72
2023-03-06T15:38:04.834Z,98032.91
2023-03-06T15:39:41.188Z,98038.41
2023-03-06T15:40:59.014Z,98029.53
2023-03-06T15:42:26.629Z,98032.69
2023-03-06T15:43:40.200Z,98035.22
2023-03-06T15:44:56.404Z,98035.41
2023-03-06T15:46:05.163Z,98039.66
2023-03-06T15:47:14.665Z,98037.13
2023-03-06T15:48:19.413Z,98035.66
2023-03-06T15:49:23.557Z,98035.03
2023-03-06T15:50:29.499Z,98029.66
2023-03-06T15:51:34.108Z,98033.56
2023-03-06T15:52:37.897Z,98033.81
2023-03-06T15:53:43.904Z,98026.63
2023-03-06T15:54:47.963Z,98038.19
2023-03-06T15:55:53.888Z,98026.50
2023-03-06T15:56:57.777Z,98033.34
2023-03-06T15:58:03.721Z,98035.38
2023-03-06T15:59:33.206Z,98033.88
2023-03-06T16:00:41.001Z,98040.94
2023-03-06T16:01:45.593Z,98027.16
2023-03-06T16:02:49.203Z,98030.53
2023-03-06T16:03:53.275Z,98033.81
2023-03-06T16:04:57.447Z,98032.59
2023-03-06T16:06:01.249Z,98030.09
2023-03-06T16:07:06.046Z,98032.00
2023-03-06T16:08:15.107Z,98034.41
2023-03-06T16:09:18.884Z,98036.81
2023-03-06T16:10:27.682Z,98038.41
2023-03-06T16:11:43.749Z,98033.00
2023-03-06T16:13:03.183Z,98033.34
2023-03-06T16:14:23.884Z,98034.41
2023-03-06T16:15:29.890Z,98037.28
2023-03-06T16:16:39.688Z,98032.84
2023-03-06T16:17:43.819Z,98039.78
2023-03-06T16:18:47.897Z,98036.53
2023-03-06T16:19:52.137Z,98032.19
2023-03-06T16:20:55.985Z,98035.69
2023-03-06T16:22:00.169Z,98031.81
2023-03-06T16:23:11.617Z,98032.19
2023-03-06T16:24:35.714Z,98034.22
2023-03-06T16:25:47.528Z,98025.38
2023-03-06T16:26:56.365Z,98027.28
2023-03-06T16:28:00.257Z,98022.63
2023-03-06T16:29:04.675Z,98022.84
2023-03-06T16:30:20.589Z,98027.47
2023-03-06T16:31:24.757Z,98026.53
2023-03-06T16:32:28.893Z,98037.19
2023-03-06T16:33:32.609Z,98035.91
2023-03-06T16:34:36.165Z,98030.41
2023-03-06T16:35:41.367Z,98029.56
2023-03-06T16:36:45.629Z,98029.56
2023-03-06T16:37:49.870Z,98031.72
2023-03-06T16:38:54.239Z,98038.44
2023-03-06T16:39:58.044Z,98028.13
2023-03-06T16:41:02.053Z,98038.56
2023-03-06T16:42:13.000Z,98033.81
2023-03-06T16:43:17.405Z,98039.09
2023-03-06T16:44:21.816Z,98035.19
2023-03-06T16:45:28.494Z,98034.22
2023-03-06T16:46:41.692Z,98026.75
2023-03-06T16:47:48.837Z,98034.16
2023-03-06T16:48:53.340Z,98032.16
2023-03-06T16:50:02.049Z,98037.63
2023-03-06T16:51:16.145Z,98039.09
2023-03-06T16:52:20.252Z,98039.22
2023-03-06T16:53:24.081Z,98034.66
2023-03-06T16:54:27.759Z,98032.75
2023-03-06T16:55:32.548Z,98038.88
2023-03-06T16:56:36.236Z,98035.28
2023-03-06T16:57:40.680Z,98037.00
2023-03-06T16:58:45.131Z,98037.91
2023-03-06T16:59:49.642Z,98040.78
2023-03-06T17:00:54.739Z,98039.94
2023-03-06T17:01:58.606Z,98040.91
2023-03-06T17:03:02.988Z,98044.13
2023-03-06T17:04:08.072Z,98047.63
2023-03-06T17:05:13.334Z,98047.00
2023-03-06T17:06:21.348Z,98050.59
2023-03-06T17:07:25.336Z,98053.22
2023-03-06T17:08:30.056Z,98046.47
2023-03-06T17:09:33.580Z,98050.94
2023-03-06T17:10:42.100Z,98054.75
2023-03-06T17:11:46.976Z,98057.69
2023-03-06T17:12:53.034Z,98056.44
2023-03-06T17:13:56.920Z,98056.44
2023-03-06T17:15:00.961Z,98058.09
2023-03-06T17:16:08.615Z,98056.97
2023-03-06T17:17:12.531Z,98059.38
2023-03-06T17:18:16.197Z,98060.25
2023-03-06T17:19:21.057Z,98057.38
2023-03-06T17:20:24.800Z,98055.06
2023-03-06T17:21:30.571Z,98056.25
2023-03-06T17:22:36.468Z,98054.44
2023-03-06T17:23:41.018Z,98054.13
2023-03-06T17:24:52.290Z,98059.72
2023-03-06T17:26:15.789Z,98064.56
2023-03-06T17:27:22.713Z,98056.00
2023-03-06T17:28:28.334Z,98051.03
2023-03-06T17:29:32.854Z,98050.94
2023-03-06T17:30:37.077Z,98054.22
2023-03-06T17:31:41.717Z,98048.94
2023-03-06T17:32:45.880Z,98050.09
2023-03-06T17:33:54.418Z,98050.31
2023-03-06T17:34:59.215Z,98052.84
2023-03-06T17:36:03.120Z,98048.41
2023-03-06T17:37:11.561Z,98055.59
2023-03-06T17:38:19.640Z,98053.88
2023-03-06T17:39:24.030Z,98053.78
2023-03-06T17:40:28.182Z,98056.50
2023-03-06T17:41:34.178Z,98051.16
2023-03-06T17:42:38.018Z,98048.19
2023-03-06T17:43:42.277Z,98048.81
2023-03-06T17:44:46.135Z,98050.19
2023-03-06T17:45:50.077Z,98045.03
2023-03-06T17:46:54.046Z,98041.47
2023-03-06T17:48:00.545Z,98055.75
2023-03-06T17:49:04.991Z,98055.56
2023-03-06T17:50:09.982Z,98052.81
2023-03-06T17:51:14.139Z,98056.50
2023-03-06T17:52:17.867Z,98052.59
2023-03-06T17:53:23.651Z,98054.91
2023-03-06T17:54:30.347Z,98064.94
2023-03-06T17:55:34.179Z,98060.81
2023-03-06T17:56:38.407Z,98058.41
2023-03-06T17:57:42.273Z,98062.50
2023-03-06T17:58:45.858Z,98056.09
2023-03-06T17:59:49.910Z,98054.31
2023-03-06T18:00:54.374Z,98052.91
2023-03-06T18:01:59.586Z,98057.03
2023-03-06T18:03:03.939Z,98057.22
2023-03-06T18:04:07.865Z,98059.13
2023-03-06T18:05:12.633Z,98051.25
2023-03-06T18:06:18.329Z,98055.78
2023-03-06T18:07:22.427Z,98058.28
2023-03-06T18:08:27.643Z,98057.88
2023-03-06T18:09:32.489Z,98053.84
2023-03-06T18:10:43.559Z,98058.06
2023-03-06T18:11:47.150Z,98060.06
2023-03-06T18:12:51.288Z,98056.19
2023-03-06T18:13:55.426Z,98057.31
2023-03-06T18:14:59.490Z,98051.09
2023-03-06T18:16:03.991Z,98057.09
2023-03-06T18:17:08.322Z,98049.00
2023-03-06T18:18:11.923Z,98050.59
2023-03-06T18:19:16.602Z,98054.56
2023-03-06T18:20:20.819Z,98057.72
2023-03-06T18:21:25.679Z,98048.88
2023-03-06T18:22:29.393Z,98058.69
2023-03-06T18:23:33.372Z,98056.16
2023-03-06T18:24:37.617Z,98055.09
2023-03-06T18:25:41.690Z,98050.66
2023-03-06T18:26:45.911Z,98048.69
2023-03-06T18:27:49.768Z,98054.16
2023-03-06T18:29:06.760Z,98058.38
2023-03-06T18:30:11.818Z,98051.63
2023-03-06T18:31:25.492Z,98048.16
2023-03-06T18:32:29.404Z,98047.19
2023-03-06T18:33:33.206Z,98055.94
2023-03-06T18:34:37.356Z,98057.84
2023-03-06T18:35:44.339Z,98061.63
2023-03-06T18:36:52.763Z,98056.16
2023-03-06T18:37:56.590Z,98051.94
2023-03-06T18:39:04.313Z,98058.13
2023-03-06T18:40:11.262Z,98057.28
2023-03-06T18:41:24.805Z,98059.06
2023-03-06T18:42:28.883Z,98062.88
2023-03-06T18:43:32.605Z,98052.34
2023-03-06T18:44:36.509Z,98057.59
2023-03-06T18:45:44.363Z,98056.56
2023-03-06T18:46:48.897Z,98057.22
2023-03-06T18:47:55.383Z,98050.44
2023-03-06T18:49:00.137Z,98055.72
2023-03-06T18:50:10.493Z,98054.75
2023-03-06T18:51:16.592Z,98053.81
2023-03-06T18:52:20.657Z,98049.59
2023-03-06T18:53:24.471Z,98055.16
2023-03-06T18:54:29.929Z,98046.31
2023-03-06T18:55:36.358Z,98049.28
2023-03-06T18:56:44.491Z,98047.38
2023-03-06T18:57:48.104Z,98055.16
2023-03-06T18:59:04.833Z,98045.59
2023-03-06T19:00:10.539Z,98046.44
2023-03-06T19:01:17.427Z,98048.22
2023-03-06T19:02:21.436Z,98045.81
2023-03-06T19:03:25.407Z,98042.22
2023-03-06T19:04:29.094Z,98052.31
2023-03-06T19:05:43.170Z,98050.53
2023-03-06T19:06:47.273Z,98053.25
2023-03-06T19:07:51.477Z,98052.41
2023-03-06T19:09:04.110Z,98052.53
2023-03-06T19:10:09.820Z,98051.03
2023-03-06T19:11:18.338Z,98047.56
2023-03-06T19:12:23.064Z,98046.41
2023-03-06T19:13:29.351Z,98046.41
2023-03-06T19:14:36.494Z,98051.47
2023-03-06T19:15:46.666Z,98052.41
2023-03-06T19:16:51.024Z,98050.63
2023-03-06T19:17:55.801Z,98053.25
2023-03-06T19:19:02.940Z,98049.97
2023-03-06T19:20:08.359Z,98053.38
2023-03-06T19:21:20.037Z,98055.03
2023-03-06T19:22:24.260Z,98056.72
2023-03-06T19:23:28.123Z,98050.63
2023-03-06T19:24:35.103Z,98051.47
2023-03-06T19:25:43.325Z,98055.88
2023-03-06T19:26:52.582Z,98057.69
2023-03-06T19:28:00.280Z,98049.78
2023-03-06T19:29:11.899Z,98054.09
2023-03-06T19:30:17.356Z,98054.94
2023-03-06T19:31:27.581Z,98057.47
2023-03-06T19:32:34.336Z,98052.09
2023-03-06T19:33:46.050Z,98052.09
2023-03-06T19:34:50.855Z,98050.53
2023-03-06T19:35:56.233Z,98051.25
2023-03-06T19:37:04.656Z,98046.75
2023-03-06T19:38:10.601Z,98054.72
2023-03-06T19:39:20.547Z,98047.69
2023-03-06T19:40:31.750Z,98051.06
2023-03-06T19:41:35.915Z,98047.69
2023-03-06T19:42:43.062Z,98048.53
2023-03-06T19:43:53.115Z,98048.31
2023-03-06T19:44:58.695Z,98048.31
2023-03-06T19:46:03.806Z,98043.06
2023-03-06T19:47:07.854Z,98045.59
2023-03-06T19:48:13.730Z,98047.50
2023-03-06T19:49:22.371Z,98045.69
2023-03-06T19:50:30.900Z,98050.84
2023-03-06T19:51:35.140Z,98056.31
2023-03-06T19:52:39.236Z,98045.81
2023-03-06T19:53:44.820Z,98040.31
2023-03-06T19:54:49.055Z,98041.28
2023-03-06T19:55:53.303Z,98043.06
2023-03-06T19:56:57.916Z,98051.59
2023-03-06T19:58:04.513Z,98047.28
2023-03-06T19:59:09.227Z,98042.34
2023-03-06T20:00:17.959Z,98042.97
2023-03-06T20:01:37.781Z,98040.31
2023-03-06T20:02:45.030Z,98040.31
2023-03-06T20:03:51.040Z,98041.16
2023-03-06T20:04:55.590Z,98038.66
2023-03-06T20:05:59.445Z,98042.22
2023-03-06T20:07:05.487Z,98041.50
2023-03-06T20:08:11.194Z,98046.00
2023-03-06T20:09:14.901Z,98042.63
2023-03-06T20:10:19.495Z,98046.31
2023-03-06T20:11:31.577Z,98054.19
2023-03-06T20:12:36.234Z,98056.84
2023-03-06T20:13:46.929Z,98051.56
2023-03-06T20:14:51.642Z,98044.63
2023-03-06T20:15:56.304Z,98049.13
2023-03-06T20:17:00.059Z,98049.97
2023-03-06T20:18:06.404Z,98050.72
2023-03-06T20:19:14.407Z,98050.72
2023-03-06T20:20:19.272Z,98055.03
2023-03-06T20:21:23.538Z,98056.00
2023-03-06T20:22:30.832Z,98065.56
2023-03-06T20:23:35.208Z,98058.63
2023-03-06T20:24:39.165Z,98052.53
2023-03-06T20:25:43.120Z,98056.00
2023-03-06T20:26:52.673Z,98063.88
2023-03-06T20:27:56.428Z,98056.94
2023-03-06T20:29:01.161Z,98064.84
2023-03-06T20:30:09.786Z,98048.94
2023-03-06T20:31:18.128Z,98050.72
2023-03-06T20:32:22.694Z,98049.06
2023-03-06T20:33:27.447Z,98047.25
2023-03-06T20:34:31.331Z,98049.78
2023-03-06T20:35:39.679Z,98044.53
2023-03-06T20:36:43.431Z,98054.94
2023-03-06T20:37:48.487Z,98052.31
2023-03-06T20:38:52.207Z,98048.84
2023-03-06T20:39:56.364Z,98043.69
2023-03-06T20:41:00.130Z,98045.53
2023-03-06T20:42:07.025Z,98040.41
2023-03-06T20:43:11.107Z,98044.63
2023-03-06T20:44:19.682Z,98041.16
2023-03-06T20:45:24.987Z,98033.56
2023-03-06T20:46:29.939Z,98037.13
2023-03-06T20:47:33.925Z,98036.38
2023-03-06T20:48:39.025Z,98036.47
2023-03-06T20:49:43.081Z,98036.59
2023-03-06T20:50:47.449Z,98043.34
2023-03-06T20:51:51.484Z,98047.78
2023-03-06T20:52:58.524Z,98046.16
2023-03-06T20:54:03.399Z,98036.47
2023-03-06T20:55:08.788Z,98047.31
2023-03-06T20:56:19.402Z,98048.91
2023-03-06T20:57:23.685Z,98039.44
2023-03-06T20:58:30.235Z,98048.16
2023-03-06T20:59:33.999Z,98046.47
2023-03-06T21:00:39.203Z,98040.28
2023-03-06T21:01:45.889Z,98049.94
2023-03-06T21:02:49.900Z,98041.28
2023-03-06T21:03:54.796Z,98044.69
2023-03-06T21:05:01.003Z,98049.19
2023-03-06T21:06:07.519Z,98042.97
2023-03-06T21:07:16.063Z,98047.41
2023-03-06T21:08:23.650Z,98042.34
2023-03-06T21:09:27.352Z,98041.63
2023-03-06T21:10:31.295Z,98036.44
2023-03-06T21:11:35.813Z,98043.59
2023-03-06T21:12:40.124Z,98040.84
2023-03-06T21:13:44.012Z,98033.91
2023-03-06T21:14:47.588Z,98041.06
2023-03-06T21:15:51.362Z,98035.91
2023-03-06T21:16:55.160Z,98037.59
2023-03-06T21:17:59.352Z,98040.31
2023-03-06T21:19:03.898Z,98046.53
2023-03-06T21:20:11.244Z,98038.72
2023-03-06T21:21:22.085Z,98039.78
2023-03-06T21:22:26.877Z,98034.50
2023-03-06T21:23:31.915Z,98032.72
2023-03-06T21:24:36.827Z,98041.66
2023-03-06T21:25:52.141Z,98037.25
2023-03-06T21:26:56.470Z,98033.88
2023-03-06T21:28:00.554Z,98032.09
2023-03-06T21:29:05.066Z,98027.03
2023-03-06T21:30:10.155Z,98033.13
2023-03-06T21:31:18.287Z,98036.59
2023-03-06T21:32:23.172Z,98030.59
2023-03-06T21:33:29.621Z,98033.22
2023-03-06T21:34:33.361Z,98031.53
2023-03-06T21:35:45.726Z,98039.53
2023-03-06T21:36:53.030Z,98037.63
2023-03-06T21:37:56.856Z,98035.13
2023-03-06T21:39:00.919Z,98040.47
2023-03-06T21:40:08.239Z,98035.28
2023-03-06T21:41:24.892Z,98035.41
2023-03-06T21:42:29.521Z,98028.47
2023-03-06T21:43:33.277Z,98036.25
2023-03-06T21:44:37.164Z,98036.34
2023-03-06T21:45:46.645Z,98039.06
2023-03-06T21:46:50.293Z,98038.25
2023-03-06T21:47:54.202Z,98037.41
2023-03-06T21:48:59.045Z,98037.41
2023-03-06T21:50:03.391Z,98038.41
2023-03-06T21:51:15.864Z,98037.69
2023-03-06T21:52:19.923Z,98036.72
2023-03-06T21:53:23.463Z,98039.47
2023-03-06T21:54:29.461Z,98033.38
2023-03-06T21:55:33.367Z,98036.09
2023-03-06T21:56:37.548Z,98037.97
2023-03-06T21:57:41.463Z,98036.28
2023-03-06T21:58:48.757Z,98036.28
2023-03-06T21:59:52.742Z,98032.91
2023-03-06T22:00:57.329Z,98038.06
2023-03-06T22:02:01.725Z,98028.69
2023-03-06T22:03:06.806Z,98033.84
2023-03-06T22:04:10.460Z,98027.88
2023-03-06T22:05:15.045Z,98022.69
2023-03-06T22:06:23.624Z,98027.09
2023-03-06T22:07:28.932Z,98028.69
2023-03-06T22:08:32.484Z,98021.72
2023-03-06T22:09:37.544Z,98023.72
2023-03-06T22:10:42.078Z,98024.69
2023-03-06T22:11:46.444Z,98022.78
2023-03-06T22:12:50.225Z,98025.31
2023-03-06T22:13:54.129Z,98032.44
2023-03-06T22:14:58.494Z,98018.56
2023-03-06T22:16:02.318Z,98022.16
2023-03-06T22:17:06.112Z,98023.94
2023-03-06T22:18:15.971Z,98019.81
2023-03-06T22:19:20.163Z,98015.66
2023-03-06T22:20:23.795Z,98022.53
2023-03-06T22:21:27.752Z,98016.50
2023-03-06T22:22:33.108Z,98014.75
2023-03-06T22:23:37.799Z,98014.94
2023-03-06T22:24:41.423Z,98013.97
2023-03-06T22:25:45.127Z,98014.09
2023-03-06T22:26:48.890Z,98011.56
2023-03-06T22:27:52.847Z,98014.09
2023-03-06T22:28:57.307Z,98013.34
2023-03-06T22:30:00.963Z,98008.19
2023-03-06T22:31:18.220Z,98009.31
2023-03-06T22:32:22.202Z,98010.25
2023-03-06T22:33:26.265Z,98003.31
2023-03-06T22:34:30.201Z,98014.69
2023-03-06T22:35:34.385Z,98007.81
2023-03-06T22:36:38.872Z,98014.22
2023-03-06T22:37:42.607Z,98014.09
2023-03-06T22:38:48.661Z,98018.53
2023-03-06T22:39:52.395Z,98011.75
2023-03-06T22:40:59.472Z,98013.53
2023-03-06T22:42:03.285Z,98017.13
2023-03-06T22:43:07.117Z,98009.34
2023-03-06T22:44:18.225Z,98014.59
2023-03-06T22:45:22.467Z,98017.41
2023-03-06T22:46:27.906Z,98019.28
2023-03-06T22:47:31.666Z,98018.53
2023-03-06T22:48:35.792Z,98022.09